createdAt,value
2018-07-01T00:00:14.939Z,1.80
2018-07-01T00:02:42.613Z,1.77
2018-07-01T00:05:10.831Z,1.80
2018-07-01T00:07:38.498Z,2.20
2018-07-01T00:10:11.124Z,2.00
2018-07-01T00:12:38.837Z,1.87
2018-07-01T00:15:07.296Z,1.53
2018-07-01T00:17:35.390Z,1.53
2018-07-01T00:20:04.630Z,2.40
2018-07-01T00:22:32.252Z,1.83
2018-07-01T00:24:59.849Z,1.43
2018-07-01T00:27:27.417Z,1.90
2018-07-01T00:29:55.114Z,1.60
2018-07-01T00:32:22.747Z,2.20
2018-07-01T00:34:50.349Z,1.77
2018-07-01T00:37:17.985Z,1.53
2018-07-01T00:39:45.575Z,1.73
2018-07-01T00:42:13.150Z,1.40
2018-07-01T00:44:40.811Z,1.60
2018-07-01T00:47:09.134Z,2.00
2018-07-01T00:49:36.750Z,1.80
2018-07-01T00:52:04.320Z,2.03
2018-07-01T00:54:31.979Z,2.03
2018-07-01T00:57:00.360Z,1.90
2018-07-01T00:59:27.955Z,1.63
2018-07-01T01:01:55.527Z,1.97
2018-07-01T01:04:23.103Z,1.97
2018-07-01T01:06:50.719Z,1.90
2018-07-01T01:09:18.331Z,2.37
2018-07-01T01:11:45.964Z,1.73
2018-07-01T01:14:13.569Z,1.77
2018-07-01T01:16:41.193Z,1.30
2018-07-01T01:19:09.242Z,1.57
2018-07-01T01:21:37.253Z,1.67
2018-07-01T01:24:04.905Z,1.47
2018-07-01T01:26:32.789Z,1.63
2018-07-01T01:29:01.058Z,1.70
2018-07-01T01:31:28.670Z,1.23
2018-07-01T01:33:56.313Z,1.50
2018-07-01T01:36:25.243Z,1.30
2018-07-01T01:38:54.466Z,1.63
2018-07-01T01:41:27.441Z,1.67
2018-07-01T01:43:58.882Z,1.87
2018-07-01T01:46:33.373Z,1.30
2018-07-01T01:49:06.978Z,1.37
2018-07-01T01:51:43.432Z,1.10
2018-07-01T01:56:20.119Z,1.43
2018-07-01T01:58:57.077Z,1.33
2018-07-01T02:03:31.713Z,1.53
2018-07-01T02:06:03.845Z,1.47
2018-07-01T02:08:40.904Z,1.50
2018-07-01T02:11:08.592Z,1.50
2018-07-01T02:13:38.097Z,1.37
2018-07-01T02:16:09.466Z,1.33
2018-07-01T02:18:37.083Z,1.30
2018-07-01T02:21:04.673Z,1.90
2018-07-01T02:23:38.439Z,1.77
2018-07-01T02:26:06.147Z,1.50
2018-07-01T02:28:33.792Z,1.33
2018-07-01T02:31:01.389Z,1.47
2018-07-01T02:33:28.951Z,1.20
2018-07-01T02:35:56.551Z,1.20
2018-07-01T02:38:24.097Z,1.50
2018-07-01T02:40:51.687Z,1.30
2018-07-01T02:43:19.276Z,1.23
2018-07-01T02:45:46.842Z,1.20
2018-07-01T02:48:14.382Z,1.40
2018-07-01T02:50:41.904Z,1.40
2018-07-01T02:53:09.454Z,1.53
2018-07-01T02:55:37.079Z,1.57
2018-07-01T02:58:04.758Z,1.20
2018-07-01T03:00:32.279Z,1.70
2018-07-01T03:02:59.899Z,1.50
2018-07-01T03:05:27.490Z,1.37
2018-07-01T03:07:55.007Z,1.70
2018-07-01T03:10:22.572Z,1.30
2018-07-01T03:12:50.103Z,1.63
2018-07-01T03:15:18.301Z,1.30
2018-07-01T03:17:45.909Z,1.50
2018-07-01T03:20:13.485Z,1.20
2018-07-01T03:22:41.041Z,1.30
2018-07-01T03:25:08.703Z,1.53
2018-07-01T03:27:36.266Z,1.17
2018-07-01T03:30:03.890Z,1.77
2018-07-01T03:32:31.476Z,1.10
2018-07-01T03:34:59.073Z,1.40
2018-07-01T03:37:26.625Z,1.73
2018-07-01T03:39:54.222Z,1.70
2018-07-01T03:42:21.790Z,1.60
2018-07-01T03:44:49.349Z,1.60
2018-07-01T03:47:16.943Z,1.40
2018-07-01T03:49:44.533Z,1.73
2018-07-01T03:52:12.130Z,1.50
2018-07-01T03:54:39.748Z,1.87
2018-07-01T03:57:07.315Z,1.53
2018-07-01T03:59:34.861Z,1.20
2018-07-01T04:02:02.474Z,1.43
2018-07-01T04:04:30.072Z,1.40
2018-07-01T04:06:57.643Z,1.67
2018-07-01T04:09:25.302Z,1.27
2018-07-01T04:11:52.928Z,1.73
2018-07-01T04:14:20.512Z,1.30
2018-07-01T04:16:48.100Z,1.40
2018-07-01T04:19:16.406Z,1.60
2018-07-01T04:21:43.969Z,1.40
2018-07-01T04:24:12.586Z,1.30
2018-07-01T04:26:40.212Z,1.40
2018-07-01T04:29:07.809Z,1.40
2018-07-01T04:31:35.401Z,1.40
2018-07-01T04:34:03.027Z,1.33
2018-07-01T04:36:31.287Z,1.20
2018-07-01T04:38:58.886Z,1.60
2018-07-01T04:41:26.430Z,1.60
2018-07-01T04:43:54.041Z,1.40
2018-07-01T04:46:22.616Z,1.60
2018-07-01T04:48:50.160Z,1.40
2018-07-01T04:51:18.719Z,1.77
2018-07-01T04:53:46.314Z,1.40
2018-07-01T04:56:13.900Z,1.30
2018-07-01T04:58:41.452Z,1.60
2018-07-01T05:01:09.026Z,1.40
2018-07-01T05:03:36.615Z,1.63
2018-07-01T05:06:05.261Z,1.43
2018-07-01T05:08:33.495Z,1.70
2018-07-01T05:11:01.089Z,1.57
2018-07-01T05:13:28.640Z,1.53
2018-07-01T05:15:56.222Z,1.60
2018-07-01T05:18:23.816Z,1.40
2018-07-01T05:20:51.435Z,1.43
2018-07-01T05:23:19.032Z,1.60
2018-07-01T05:25:46.608Z,1.77
2018-07-01T05:28:14.213Z,1.53
2018-07-01T05:30:41.962Z,1.60
2018-07-01T05:33:09.523Z,1.60
2018-07-01T05:35:37.180Z,1.13
2018-07-01T05:38:04.816Z,1.80
2018-07-01T05:40:32.396Z,1.70
2018-07-01T05:42:59.982Z,1.40
2018-07-01T05:45:27.716Z,1.33
2018-07-01T05:47:55.313Z,1.70
2018-07-01T05:50:23.792Z,1.83
2018-07-01T05:52:51.346Z,1.20
2018-07-01T05:55:19.830Z,1.90
2018-07-01T05:57:48.088Z,1.20
2018-07-01T06:00:15.695Z,1.87
2018-07-01T06:02:43.386Z,1.60
2018-07-01T06:05:11.076Z,1.73
2018-07-01T06:07:38.680Z,1.80
2018-07-01T06:10:07.029Z,1.57
2018-07-01T06:12:34.642Z,1.57
2018-07-01T06:15:02.237Z,1.70
2018-07-01T06:17:29.828Z,1.50
2018-07-01T06:19:57.453Z,1.50
2018-07-01T06:22:25.090Z,2.00
2018-07-01T06:24:53.471Z,1.50
2018-07-01T06:27:21.236Z,1.50
2018-07-01T06:29:48.864Z,1.40
2018-07-01T06:32:16.454Z,1.57
2018-07-01T06:34:44.026Z,1.47
2018-07-01T06:37:12.454Z,1.77
2018-07-01T06:39:40.279Z,1.67
2018-07-01T06:42:07.986Z,1.30
2018-07-01T06:44:35.637Z,2.20
2018-07-01T06:47:04.105Z,1.70
2018-07-01T06:49:32.430Z,1.73
2018-07-01T06:52:00.015Z,1.63
2018-07-01T06:54:27.657Z,1.60
2018-07-01T06:56:55.223Z,1.50
2018-07-01T06:59:22.841Z,1.70
2018-07-01T07:01:50.483Z,1.60
2018-07-01T07:04:18.067Z,1.90
2018-07-01T07:06:45.688Z,1.63
2018-07-01T07:09:13.297Z,1.93
2018-07-01T07:11:41.840Z,1.70
2018-07-01T07:14:09.592Z,2.07
2018-07-01T07:16:37.188Z,1.67
2018-07-01T07:19:04.914Z,1.93
2018-07-01T07:21:32.542Z,1.70
2018-07-01T07:24:00.165Z,1.70
2018-07-01T07:26:28.768Z,1.50
2018-07-01T07:28:56.387Z,1.97
2018-07-01T07:31:24.063Z,1.70
2018-07-01T07:33:51.847Z,1.67
2018-07-01T07:36:19.430Z,1.67
2018-07-01T07:38:47.020Z,1.87
2018-07-01T07:41:14.638Z,2.00
2018-07-01T07:43:42.271Z,1.70
2018-07-01T07:46:10.458Z,1.57
2018-07-01T07:48:38.170Z,1.93
2018-07-01T07:51:05.788Z,1.77
2018-07-01T07:53:33.426Z,1.80
2018-07-01T07:56:01.027Z,1.30
2018-07-01T07:58:28.631Z,1.60
2018-07-01T08:00:56.356Z,1.67
2018-07-01T08:03:23.983Z,1.63
2018-07-01T08:05:51.568Z,1.80
2018-07-01T08:08:19.196Z,1.70
2018-07-01T08:10:50.980Z,1.90
2018-07-01T08:13:19.152Z,1.87
2018-07-01T08:15:47.684Z,1.70
2018-07-01T08:18:15.257Z,1.67
2018-07-01T08:20:45.446Z,1.40
2018-07-01T08:23:13.002Z,1.80
2018-07-01T08:25:40.507Z,1.40
2018-07-01T08:28:08.131Z,1.10
2018-07-01T08:30:35.767Z,1.70
2018-07-01T08:33:03.399Z,1.40
2018-07-01T08:35:43.754Z,1.70
2018-07-01T08:38:11.325Z,1.30
2018-07-01T08:40:38.928Z,1.30
2018-07-01T08:43:06.411Z,1.60
2018-07-01T08:45:34.592Z,1.67
2018-07-01T08:48:02.703Z,1.50
2018-07-01T08:50:30.298Z,1.10
2018-07-01T08:52:57.923Z,1.40
2018-07-01T08:55:25.597Z,1.70
2018-07-01T08:57:53.144Z,1.47
2018-07-01T09:00:20.773Z,1.50
2018-07-01T09:02:48.444Z,1.83
2018-07-01T09:05:16.110Z,1.50
2018-07-01T09:07:44.383Z,1.30
2018-07-01T09:10:12.015Z,1.87
2018-07-01T09:12:39.547Z,1.20
2018-07-01T09:15:07.078Z,1.20
2018-07-01T09:17:34.749Z,1.17
2018-07-01T09:20:02.412Z,1.30
2018-07-01T09:22:30.019Z,1.67
2018-07-01T09:24:57.700Z,1.40
2018-07-01T09:27:25.440Z,1.37
2018-07-01T09:29:58.990Z,1.60
2018-07-01T09:32:27.245Z,1.40
2018-07-01T09:34:54.845Z,1.40
2018-07-01T09:37:22.423Z,1.30
2018-07-01T09:39:50.059Z,1.20
2018-07-01T09:42:17.630Z,1.60
2018-07-01T09:44:45.238Z,1.30
2018-07-01T09:47:12.859Z,1.33
2018-07-01T09:49:40.465Z,1.57
2018-07-01T09:52:08.011Z,1.53
2018-07-01T09:54:35.635Z,1.37
2018-07-01T09:57:03.299Z,1.77
2018-07-01T09:59:30.926Z,1.73
2018-07-01T10:01:58.590Z,1.33
2018-07-01T10:04:26.169Z,1.50
2018-07-01T10:06:53.786Z,1.60
2018-07-01T10:09:21.358Z,1.50
2018-07-01T10:11:48.963Z,1.23
2018-07-01T10:14:16.525Z,1.67
2018-07-01T10:16:44.108Z,1.70
2018-07-01T10:19:12.213Z,1.77
2018-07-01T10:21:39.791Z,1.23
2018-07-01T10:24:07.412Z,1.40
2018-07-01T10:26:35.915Z,1.40
2018-07-01T10:29:09.345Z,1.40
2018-07-01T10:31:37.491Z,1.60
2018-07-01T10:34:06.050Z,1.23
2018-07-01T10:36:33.722Z,1.47
2018-07-01T10:39:01.463Z,1.83
2018-07-01T10:41:29.135Z,1.37
2018-07-01T10:43:58.057Z,1.50
2018-07-01T10:46:25.667Z,1.47
2018-07-01T10:48:53.752Z,1.50
2018-07-01T10:51:21.540Z,1.57
2018-07-01T10:53:49.177Z,1.47
2018-07-01T10:56:16.802Z,1.03
2018-07-01T10:58:45.048Z,1.37
2018-07-01T11:01:12.740Z,1.10
2018-07-01T11:03:40.626Z,1.33
2018-07-01T11:06:08.432Z,1.20
2018-07-01T11:08:36.281Z,1.10
2018-07-01T11:11:04.303Z,1.20
2018-07-01T11:13:32.052Z,1.10
2018-07-01T11:15:59.829Z,1.10
2018-07-01T11:18:27.836Z,1.33
2018-07-01T11:20:56.452Z,1.30
2018-07-01T11:23:24.613Z,1.43
2018-07-01T11:25:52.389Z,1.20
2018-07-01T11:28:20.074Z,1.30
2018-07-01T11:33:21.996Z,0.90
2018-07-01T11:35:49.603Z,1.60
2018-07-01T11:38:17.250Z,1.30
2018-07-01T11:40:44.846Z,1.40
2018-07-01T11:43:12.360Z,1.03
2018-07-01T11:45:39.938Z,1.20
2018-07-01T11:48:07.603Z,1.60
2018-07-01T11:50:35.800Z,1.03
2018-07-01T11:53:03.678Z,1.13
2018-07-01T11:55:31.380Z,1.10
2018-07-01T11:57:59.077Z,1.10
2018-07-01T12:00:27.154Z,1.60
2018-07-01T12:02:54.911Z,1.20
2018-07-01T12:05:23.686Z,1.27
2018-07-01T12:07:51.327Z,1.20
2018-07-01T12:10:18.990Z,1.10
2018-07-01T12:12:46.665Z,1.20
2018-07-01T12:15:14.265Z,1.17
2018-07-01T12:17:42.614Z,1.30
2018-07-01T12:20:10.285Z,1.20
2018-07-01T12:22:38.194Z,1.23
2018-07-01T12:25:05.880Z,1.20
2018-07-01T12:27:34.932Z,1.30
2018-07-01T12:30:03.311Z,1.43
2018-07-01T12:32:30.908Z,1.17
2018-07-01T12:34:58.571Z,1.03
2018-07-01T12:37:26.276Z,1.90
2018-07-01T12:39:54.895Z,1.27
2018-07-01T12:42:22.507Z,1.30
2018-07-01T12:47:24.599Z,1.60
2018-07-01T12:49:52.125Z,1.40
2018-07-01T12:52:19.724Z,1.47
2018-07-01T12:54:47.359Z,1.93
2018-07-01T12:57:15.032Z,1.30
2018-07-01T12:59:42.678Z,1.70
2018-07-01T13:02:10.486Z,1.10
2018-07-01T13:04:38.184Z,1.87
2018-07-01T13:07:06.014Z,1.20
2018-07-01T13:09:33.603Z,1.63
2018-07-01T13:12:01.362Z,1.47
2018-07-01T13:14:28.950Z,1.50
2018-07-01T13:16:56.628Z,1.47
2018-07-01T13:19:24.205Z,1.20
2018-07-01T13:21:51.812Z,1.30
2018-07-01T13:24:19.452Z,1.30
2018-07-01T13:26:47.100Z,1.57
2018-07-01T13:29:14.823Z,1.57
2018-07-01T13:31:42.538Z,1.40
2018-07-01T13:34:10.991Z,1.40
2018-07-01T13:36:38.678Z,1.47
2018-07-01T13:39:08.943Z,1.30
2018-07-01T13:41:37.055Z,1.23
2018-07-01T13:44:07.517Z,1.47
2018-07-01T13:46:35.191Z,1.10
2018-07-01T13:49:03.459Z,1.30
2018-07-01T13:51:31.439Z,1.30
2018-07-01T13:53:59.652Z,1.30
2018-07-01T13:56:30.480Z,1.10
2018-07-01T13:58:58.237Z,1.20
2018-07-01T14:01:26.230Z,1.30
2018-07-01T14:03:53.831Z,1.30
2018-07-01T14:06:21.518Z,0.90
2018-07-01T14:08:49.089Z,1.23
2018-07-01T14:11:16.860Z,1.60
2018-07-01T14:13:44.584Z,1.20
2018-07-01T14:16:12.214Z,1.30
2018-07-01T14:18:39.842Z,1.30
2018-07-01T14:21:07.470Z,1.20
2018-07-01T14:23:35.297Z,1.37
2018-07-01T14:26:02.953Z,1.40
2018-07-01T14:28:30.696Z,1.07
2018-07-01T14:30:58.917Z,1.10
2018-07-01T14:33:26.567Z,1.20
2018-07-01T14:35:55.056Z,1.10
2018-07-01T14:38:22.709Z,1.40
2018-07-01T14:40:50.658Z,1.10
2018-07-01T14:43:18.983Z,1.30
2018-07-01T14:45:46.627Z,1.10
2018-07-01T14:48:15.208Z,1.60
2018-07-01T14:50:43.000Z,1.30
2018-07-01T14:53:10.687Z,1.40
2018-07-01T14:55:38.304Z,1.30
2018-07-01T14:58:05.976Z,1.50
2018-07-01T15:00:34.319Z,1.00
2018-07-01T15:03:02.049Z,1.40
2018-07-01T15:05:29.709Z,1.37
2018-07-01T15:07:57.253Z,1.37
2018-07-01T15:10:24.838Z,1.13
2018-07-01T15:12:52.475Z,1.10
2018-07-01T15:15:20.136Z,1.20
2018-07-01T15:17:47.755Z,1.10
2018-07-01T15:20:15.283Z,1.27
2018-07-01T15:22:42.881Z,1.00
2018-07-01T15:25:11.415Z,1.10
2018-07-01T15:27:39.079Z,0.97
2018-07-01T15:30:07.889Z,1.10
2018-07-01T15:32:35.506Z,1.20
2018-07-01T15:35:03.743Z,1.77
2018-07-01T15:37:31.308Z,1.23
2018-07-01T15:39:58.956Z,1.17
2018-07-01T15:42:26.596Z,1.00
2018-07-01T15:44:54.207Z,1.00
2018-07-01T15:47:21.805Z,1.37
2018-07-01T15:49:49.489Z,1.10
2018-07-01T15:52:17.170Z,1.30
2018-07-01T15:54:44.749Z,1.10
2018-07-01T15:57:12.401Z,1.40
2018-07-01T15:59:40.043Z,1.10
2018-07-01T16:02:07.748Z,1.23
2018-07-01T16:04:35.329Z,0.97
2018-07-01T16:07:02.944Z,1.50
2018-07-01T16:09:30.553Z,1.00
2018-07-01T16:11:58.878Z,1.40
2018-07-01T16:14:26.522Z,1.47
2018-07-01T16:16:54.196Z,1.13
2018-07-01T16:19:21.901Z,1.20
2018-07-01T16:21:49.511Z,1.23
2018-07-01T16:24:17.113Z,1.10
2018-07-01T16:26:50.553Z,1.13
2018-07-01T16:29:18.164Z,1.17
2018-07-01T16:31:45.819Z,1.27
2018-07-01T16:34:13.452Z,1.10
2018-07-01T16:36:41.076Z,1.30
2018-07-01T16:39:10.060Z,1.10
2018-07-01T16:41:38.394Z,0.90
2018-07-01T16:44:06.148Z,1.07
2018-07-01T16:46:33.801Z,1.43
2018-07-01T16:49:02.439Z,1.00
2018-07-01T16:51:30.022Z,1.07
2018-07-01T16:53:57.872Z,1.20
2018-07-01T16:56:25.804Z,1.30
2018-07-01T16:58:54.130Z,1.20
2018-07-01T17:01:21.724Z,1.20
2018-07-01T17:03:49.344Z,1.27
2018-07-01T17:06:21.361Z,0.90
2018-07-01T17:08:49.720Z,1.20
2018-07-01T17:11:17.626Z,1.00
2018-07-01T17:13:45.371Z,1.17
2018-07-01T17:16:12.977Z,0.80
2018-07-01T17:18:40.652Z,1.40
2018-07-01T17:21:08.402Z,0.90
2018-07-01T17:23:36.271Z,1.47
2018-07-01T17:26:03.905Z,1.23
2018-07-01T17:28:31.520Z,1.13
2018-07-01T17:31:04.863Z,1.07
2018-07-01T17:33:34.060Z,1.30
2018-07-01T17:36:01.784Z,1.20
2018-07-01T17:38:29.427Z,1.17
2018-07-01T17:40:57.084Z,1.20
2018-07-01T17:43:24.748Z,1.10
2018-07-01T17:45:52.348Z,1.20
2018-07-01T17:48:19.985Z,1.40
2018-07-01T17:50:47.639Z,1.37
2018-07-01T17:53:26.711Z,1.30
2018-07-01T17:55:54.342Z,1.27
2018-07-01T17:58:21.872Z,1.00
2018-07-01T18:00:49.480Z,1.00
2018-07-01T18:03:18.116Z,1.20
2018-07-01T18:05:45.670Z,1.20
2018-07-01T18:08:13.325Z,1.00
2018-07-01T18:10:40.950Z,1.30
2018-07-01T18:13:08.557Z,1.00
2018-07-01T18:15:36.459Z,1.10
2018-07-01T18:18:04.021Z,1.07
2018-07-01T18:20:35.663Z,1.17
2018-07-01T18:23:35.847Z,1.10
2018-07-01T18:25:31.104Z,0.90
2018-07-01T18:28:11.469Z,1.20
2018-07-01T18:30:26.704Z,1.30
2018-07-01T18:32:54.347Z,1.20
2018-07-01T18:35:22.068Z,1.17
2018-07-01T18:37:49.771Z,1.00
2018-07-01T18:40:17.642Z,0.97
2018-07-01T18:42:45.363Z,1.20
2018-07-01T18:45:14.179Z,1.17
2018-07-01T18:47:46.050Z,1.30
2018-07-01T18:50:13.753Z,0.90
2018-07-01T18:52:41.430Z,1.07
2018-07-01T18:55:10.396Z,1.10
2018-07-01T18:57:38.052Z,1.10
2018-07-01T19:00:06.383Z,1.20
2018-07-01T19:02:34.729Z,1.10
2018-07-01T19:05:02.397Z,1.23
2018-07-01T19:07:30.156Z,1.13
2018-07-01T19:09:57.835Z,1.20
2018-07-01T19:12:25.561Z,0.97
2018-07-01T19:14:53.257Z,1.23
2018-07-01T19:17:21.375Z,1.20
2018-07-01T19:19:49.107Z,1.20
2018-07-01T19:22:16.784Z,1.00
2018-07-01T19:24:44.483Z,1.13
2018-07-01T19:27:12.035Z,1.30
2018-07-01T19:29:39.698Z,1.00
2018-07-01T19:32:07.351Z,1.60
2018-07-01T19:34:35.110Z,1.00
2018-07-01T19:37:02.853Z,1.50
2018-07-01T19:39:30.477Z,1.40
2018-07-01T19:41:58.089Z,1.20
2018-07-01T19:44:25.852Z,1.10
2018-07-01T19:46:54.580Z,1.30
2018-07-01T19:49:22.227Z,1.23
2018-07-01T19:51:49.856Z,1.13
2018-07-01T19:54:18.522Z,1.40
2018-07-01T19:56:46.128Z,1.43
2018-07-01T19:59:13.818Z,1.30
2018-07-01T20:01:41.510Z,1.70
2018-07-01T20:04:09.106Z,1.60
2018-07-01T20:06:37.012Z,1.07
2018-07-01T20:09:06.585Z,1.33
2018-07-01T20:11:34.306Z,1.10
2018-07-01T20:14:01.976Z,1.17
2018-07-01T20:16:29.640Z,1.30
2018-07-01T20:18:57.320Z,1.50
2018-07-01T20:21:24.997Z,1.30
2018-07-01T20:23:53.510Z,1.03
2018-07-01T20:26:21.201Z,1.50
2018-07-01T20:28:48.867Z,1.47
2018-07-01T20:31:16.507Z,1.60
2018-07-01T20:33:45.131Z,1.20
2018-07-01T20:36:12.836Z,1.53
2018-07-01T20:38:40.366Z,1.30
2018-07-01T20:41:08.039Z,1.70
2018-07-01T20:43:36.370Z,1.57
2018-07-01T20:46:04.609Z,1.67
2018-07-01T20:48:32.303Z,1.07
2018-07-01T20:51:00.050Z,1.83
2018-07-01T20:53:27.661Z,1.50
2018-07-01T20:55:55.377Z,1.73
2018-07-01T20:58:23.012Z,1.53
2018-07-01T21:00:50.609Z,1.93
2018-07-01T21:03:18.214Z,1.50
2018-07-01T21:05:46.003Z,1.67
2018-07-01T21:08:13.618Z,1.50
2018-07-01T21:10:41.961Z,1.63
2018-07-01T21:13:09.636Z,1.90
2018-07-01T21:15:37.295Z,1.50
2018-07-01T21:18:04.991Z,1.80
2018-07-01T21:20:32.730Z,2.00
2018-07-01T21:23:00.360Z,1.50
2018-07-01T21:25:27.976Z,1.70
2018-07-01T21:27:55.567Z,2.00
2018-07-01T21:30:23.126Z,2.00
2018-07-01T21:32:50.748Z,2.00
2018-07-01T21:35:18.416Z,2.13
2018-07-01T21:37:46.078Z,2.00
2018-07-01T21:40:13.680Z,2.00
2018-07-01T21:42:41.324Z,2.27
2018-07-01T21:45:09.302Z,2.17
2018-07-01T21:47:36.973Z,2.27
2018-07-01T21:50:04.770Z,2.17
2018-07-01T21:52:32.432Z,2.00
2018-07-01T21:54:59.999Z,2.20
2018-07-01T21:57:27.594Z,1.90
2018-07-01T21:59:55.218Z,2.30
2018-07-01T22:02:22.874Z,2.17
2018-07-01T22:04:50.501Z,2.13
2018-07-01T22:07:20.588Z,2.17
2018-07-01T22:09:51.543Z,1.73
2018-07-01T22:12:32.299Z,1.97
2018-07-01T22:15:22.298Z,1.97
2018-07-01T22:17:52.715Z,1.87
2018-07-01T22:20:33.348Z,2.00
2018-07-01T22:23:07.936Z,2.10
2018-07-01T22:25:35.628Z,2.50
2018-07-01T22:28:03.248Z,2.10
2018-07-01T22:30:31.870Z,2.37
2018-07-01T22:32:59.462Z,2.30
2018-07-01T22:35:27.787Z,2.83
2018-07-01T22:37:58.666Z,2.30
2018-07-01T22:40:28.658Z,3.10
2018-07-01T22:42:57.337Z,2.63
2018-07-01T22:45:24.924Z,2.37
2018-07-01T22:47:52.571Z,2.33
2018-07-01T22:50:20.225Z,2.90
2018-07-01T22:52:47.867Z,2.77
2018-07-01T22:55:15.467Z,2.30
2018-07-01T22:57:43.108Z,2.30
2018-07-01T23:00:10.700Z,2.17
2018-07-01T23:02:53.839Z,2.07
2018-07-01T23:05:22.073Z,2.33
2018-07-01T23:07:50.260Z,2.30
2018-07-01T23:10:19.865Z,2.97
2018-07-01T23:12:47.818Z,2.80
2018-07-01T23:15:15.411Z,2.20
2018-07-01T23:17:43.132Z,2.10
2018-07-01T23:20:10.760Z,1.93
2018-07-01T23:22:38.692Z,2.57
2018-07-01T23:25:06.319Z,2.27
2018-07-01T23:27:33.893Z,2.40
2018-07-01T23:30:01.481Z,1.90
2018-07-01T23:32:29.645Z,2.07
2018-07-01T23:34:57.343Z,2.27
2018-07-01T23:37:25.143Z,2.00
2018-07-01T23:39:52.710Z,2.00
2018-07-01T23:42:20.332Z,2.17
2018-07-01T23:44:48.335Z,2.23
2018-07-01T23:47:16.570Z,2.20
2018-07-01T23:49:44.265Z,2.30
2018-07-01T23:52:11.831Z,2.67
2018-07-01T23:54:39.447Z,2.23
2018-07-01T23:57:07.030Z,2.50
2018-07-01T23:59:34.646Z,2.37
